Etusivu
METAR-TAF:

METAR-TAF

Lentoasemat :

Fort Richardson, Alaska, Yhdysvallat

Leveyspiiri: 61-15-45N, Pituuspiiri: 149-39-17W, korkeus merenpinnasta: 115 m

Tämänhetkinen sää

Tämä raportti tehtiin 42 minuuttia sitten, kello 04.55 UTC
tyyntä
Lämpötila 4°C
Kosteus 60%
Ilmanpaine 1025 hPa
Näkyvyys: 12.9 km
Hajanaisia pilviä 12000 ft:n korkeudessa
Pilvistä 18000 ft:n korkeudessa

METAR: PAFR 190455Z AUTO 00000KT 8SM SCT120 OVC180 04/M03 A3026 RMK AO2 SLP256 T00431026 $

Aika: 21:37 (05:37 UTC)


TAF: puuttuu

Säähavainnot ja -ennusteet yli 4000 lentoasemalta (METAR- ja TAF-raportit).

Käytössä olevat sääasemat on merkitty karttaan keltaisilla ja punaisilla pisteillä.

Aseta hiiri pisteen päälle nähdäksesi sääaseman nimen.

Klikkaa sitten nähdäksesi säähavainnot ja -ennusteet.

Kartan vaihtaminen: klikkaa mustalla rastilla varustettuja vihreitä pisteitä, niin voit zoomata sisään; viivalla varustettua vihreää pistettä, niin voit zoomata ulos tai vihreitä nuolia, niin pääset viereisille kartoille.


METAR-TAF: